createdAt,value
2023-12-12T00:01:22.949Z,8.62
2023-12-12T00:03:51.479Z,8.63
2023-12-12T00:06:19.735Z,8.60
2023-12-12T00:08:50.659Z,8.58
2023-12-12T00:11:20.041Z,8.57
2023-12-12T00:13:48.041Z,8.62
2023-12-12T00:16:16.152Z,8.63
2023-12-12T00:18:44.211Z,8.68
2023-12-12T00:21:12.229Z,8.68
2023-12-12T00:23:40.211Z,8.65
2023-12-12T00:26:08.870Z,8.68
2023-12-12T00:28:39.329Z,8.65
2023-12-12T00:31:07.557Z,8.65
2023-12-12T00:33:35.714Z,8.62
2023-12-12T00:36:03.819Z,8.60
2023-12-12T00:38:31.746Z,8.62
2023-12-12T00:40:59.676Z,8.65
2023-12-12T00:43:27.683Z,8.63
2023-12-12T00:45:57.137Z,8.63
2023-12-12T00:48:25.154Z,8.62
2023-12-12T00:50:53.106Z,8.58
2023-12-12T00:53:23.161Z,8.57
2023-12-12T00:55:51.046Z,8.59
2023-12-12T00:58:19.081Z,8.46
2023-12-12T01:00:47.201Z,8.55
2023-12-12T01:03:16.507Z,8.53
2023-12-12T01:05:44.544Z,8.51
2023-12-12T01:08:12.431Z,8.41
2023-12-12T01:10:40.311Z,8.41
2023-12-12T01:13:08.334Z,8.47
2023-12-12T01:15:38.373Z,8.46
2023-12-12T01:18:06.410Z,8.47
2023-12-12T01:20:36.214Z,8.51
2023-12-12T01:23:04.167Z,8.54
2023-12-12T01:25:32.710Z,8.51
2023-12-12T01:28:01.273Z,8.54
2023-12-12T01:30:29.108Z,8.56
2023-12-12T01:32:57.051Z,8.60
2023-12-12T01:35:24.977Z,8.61
2023-12-12T01:37:54.238Z,8.63
2023-12-12T01:40:22.178Z,8.62
2023-12-12T01:42:50.192Z,8.61
2023-12-12T01:45:20.013Z,8.65
2023-12-12T01:47:48.544Z,8.66
2023-12-12T01:50:16.626Z,8.66
2023-12-12T01:52:44.512Z,8.69
2023-12-12T01:55:14.195Z,8.63
2023-12-12T01:57:44.694Z,8.67
2023-12-12T02:00:14.178Z,8.68
2023-12-12T02:02:42.113Z,8.69
2023-12-12T02:05:10.976Z,8.72
2023-12-12T02:07:41.181Z,8.72
2023-12-12T02:10:09.949Z,8.71
2023-12-12T02:12:39.287Z,8.70
2023-12-12T02:15:08.442Z,8.66
2023-12-12T02:17:37.027Z,8.62
2023-12-12T02:20:06.340Z,8.57
2023-12-12T02:22:35.702Z,8.54
2023-12-12T02:25:03.821Z,8.51
2023-12-12T02:27:32.127Z,8.47
2023-12-12T02:30:00.308Z,8.36
2023-12-12T02:32:31.073Z,8.28
2023-12-12T02:34:59.034Z,8.19
2023-12-12T02:37:26.930Z,8.20
2023-12-12T02:39:56.240Z,8.20
2023-12-12T02:42:24.159Z,8.20
2023-12-12T02:44:54.605Z,8.14
2023-12-12T02:47:24.002Z,8.10
2023-12-12T02:49:52.176Z,8.08
2023-12-12T02:52:20.268Z,8.10
2023-12-12T02:54:48.261Z,8.03
2023-12-12T02:57:17.544Z,8.00
2023-12-12T02:59:45.484Z,7.94
2023-12-12T03:02:13.355Z,7.92
2023-12-12T03:04:45.475Z,7.88
2023-12-12T03:07:14.568Z,7.86
2023-12-12T03:09:42.541Z,7.86
2023-12-12T03:12:10.552Z,7.83
2023-12-12T03:14:40.314Z,7.79
2023-12-12T03:17:08.297Z,7.77
2023-12-12T03:19:36.464Z,7.73
2023-12-12T03:22:04.673Z,7.72
2023-12-12T03:24:32.862Z,7.62
2023-12-12T03:27:01.045Z,7.62
2023-12-12T03:29:31.623Z,7.56
2023-12-12T03:32:02.226Z,7.45
2023-12-12T03:34:32.323Z,7.44
2023-12-12T03:37:00.263Z,7.46
2023-12-12T03:39:28.129Z,7.46
2023-12-12T03:41:56.284Z,7.50
2023-12-12T03:44:24.250Z,7.56
2023-12-12T03:46:52.200Z,7.60
2023-12-12T03:49:23.708Z,7.64
2023-12-12T03:51:53.946Z,7.63
2023-12-12T03:54:22.071Z,7.67
2023-12-12T03:56:52.379Z,7.68
2023-12-12T03:59:20.371Z,7.67
2023-12-12T04:01:51.549Z,7.74
2023-12-12T04:04:19.933Z,7.79
2023-12-12T04:06:49.904Z,7.83
2023-12-12T04:09:17.844Z,7.87
2023-12-12T04:11:45.996Z,7.87
2023-12-12T04:14:14.289Z,7.86
2023-12-12T04:16:45.212Z,7.77
2023-12-12T04:19:13.302Z,7.76
2023-12-12T04:21:45.171Z,7.72
2023-12-12T04:24:14.545Z,7.62
2023-12-12T04:26:42.525Z,7.57
2023-12-12T04:29:10.651Z,7.62
2023-12-12T04:31:38.709Z,7.64
2023-12-12T04:34:06.803Z,7.61
2023-12-12T04:36:35.370Z,7.28
2023-12-12T04:39:04.016Z,7.14
2023-12-12T04:41:33.404Z,7.08
2023-12-12T04:44:01.284Z,7.00
2023-12-12T04:46:29.363Z,6.97
2023-12-12T04:49:01.778Z,7.00
2023-12-12T04:51:29.953Z,6.99
2023-12-12T04:53:58.493Z,6.92
2023-12-12T04:56:26.605Z,6.87
2023-12-12T04:58:55.934Z,6.68
2023-12-12T05:01:28.365Z,6.69
2023-12-12T05:03:56.566Z,6.78
2023-12-12T05:06:27.075Z,6.82
2023-12-12T05:08:55.049Z,6.75
2023-12-12T05:11:23.080Z,6.76
2023-12-12T05:13:51.166Z,6.71
2023-12-12T05:16:29.045Z,6.72
2023-12-12T05:19:00.637Z,6.75
2023-12-12T05:21:28.979Z,6.77
2023-12-12T05:23:57.465Z,6.77
2023-12-12T05:26:28.449Z,6.87
2023-12-12T05:28:59.010Z,6.87
2023-12-12T05:31:31.035Z,6.90
2023-12-12T05:33:59.217Z,6.94
2023-12-12T05:36:28.765Z,6.96
2023-12-12T05:38:56.725Z,6.82
2023-12-12T05:41:24.719Z,6.88
2023-12-12T05:43:52.660Z,6.94
2023-12-12T05:46:20.698Z,6.98
2023-12-12T05:48:52.541Z,7.01
2023-12-12T05:51:21.125Z,7.02
2023-12-12T05:53:49.181Z,6.99
2023-12-12T05:56:18.919Z,6.99
2023-12-12T05:58:46.986Z,7.01
2023-12-12T06:01:18.805Z,7.04
2023-12-12T06:03:47.151Z,7.06
2023-12-12T06:06:21.946Z,7.14
2023-12-12T06:08:52.793Z,7.14
2023-12-12T06:11:22.527Z,7.13
2023-12-12T06:13:50.633Z,7.14
2023-12-12T06:16:19.140Z,7.11
2023-12-12T06:18:47.735Z,7.07
2023-12-12T06:21:15.710Z,7.02
2023-12-12T06:23:45.024Z,7.04
2023-12-12T06:26:12.887Z,7.08
2023-12-12T06:28:40.914Z,7.06
2023-12-12T06:31:09.648Z,7.13
2023-12-12T06:33:39.584Z,7.18
2023-12-12T06:36:08.748Z,7.24
2023-12-12T06:38:36.707Z,7.22
2023-12-12T06:41:06.357Z,7.28
2023-12-12T06:43:34.382Z,7.32
2023-12-12T06:46:02.375Z,7.36
2023-12-12T06:48:30.440Z,7.42
2023-12-12T06:50:58.418Z,7.42
2023-12-12T06:53:26.381Z,7.43
2023-12-12T06:55:55.699Z,7.46
2023-12-12T06:58:25.839Z,7.46
2023-12-12T07:00:53.939Z,7.50
2023-12-12T07:03:23.143Z,7.51
2023-12-12T07:05:52.440Z,7.55
2023-12-12T07:08:20.482Z,7.53
2023-12-12T07:10:48.727Z,7.57
2023-12-12T07:13:16.860Z,7.58
2023-12-12T07:15:46.145Z,7.56
2023-12-12T07:18:15.455Z,7.56
2023-12-12T07:20:45.809Z,7.61
2023-12-12T07:23:16.763Z,7.60
2023-12-12T07:25:47.247Z,7.60
2023-12-12T07:28:15.223Z,7.62
2023-12-12T07:30:47.716Z,7.62
2023-12-12T07:33:15.839Z,7.60
2023-12-12T07:35:43.825Z,7.60
2023-12-12T07:38:11.793Z,7.64
2023-12-12T07:40:40.056Z,7.67
2023-12-12T07:43:08.594Z,7.69
2023-12-12T07:45:36.664Z,7.72
2023-12-12T07:48:06.728Z,7.71
2023-12-12T07:50:34.751Z,7.71
2023-12-12T07:53:02.660Z,7.76
2023-12-12T07:55:30.684Z,7.72
2023-12-12T07:57:58.573Z,7.75
2023-12-12T08:00:27.358Z,7.78
2023-12-12T08:02:55.408Z,7.80
2023-12-12T08:05:24.687Z,7.71
2023-12-12T08:07:52.603Z,7.67
2023-12-12T08:10:20.959Z,7.57
2023-12-12T08:12:50.420Z,7.49
2023-12-12T08:15:21.110Z,7.46
2023-12-12T08:17:50.414Z,7.38
2023-12-12T08:20:18.787Z,7.53
2023-12-12T08:22:50.621Z,7.64
2023-12-12T08:25:22.843Z,7.68
2023-12-12T08:27:51.017Z,7.75
2023-12-12T08:30:19.076Z,7.83
2023-12-12T08:32:47.838Z,7.85
2023-12-12T08:35:15.998Z,7.84
2023-12-12T08:37:43.979Z,7.85
2023-12-12T08:40:13.522Z,7.93
2023-12-12T08:42:41.724Z,8.01
2023-12-12T08:45:10.979Z,8.02
2023-12-12T08:47:39.664Z,8.05
2023-12-12T08:50:10.500Z,8.16
2023-12-12T08:52:38.816Z,8.23
2023-12-12T08:55:11.958Z,8.26
2023-12-12T08:57:41.842Z,8.33
2023-12-12T09:00:12.200Z,8.39
2023-12-12T09:02:40.227Z,8.45
2023-12-12T09:05:09.652Z,8.48
2023-12-12T09:07:37.976Z,8.46
2023-12-12T09:10:07.126Z,8.49
2023-12-12T09:12:35.291Z,8.57
2023-12-12T09:15:06.973Z,8.48
2023-12-12T09:17:35.346Z,8.49
2023-12-12T09:20:04.288Z,8.44
2023-12-12T09:22:33.107Z,8.51
2023-12-12T09:25:01.296Z,8.53
2023-12-12T09:27:32.266Z,8.51
2023-12-12T09:30:00.507Z,8.51
2023-12-12T09:32:29.986Z,8.52
2023-12-12T09:34:57.936Z,8.56
2023-12-12T09:37:26.290Z,8.54
2023-12-12T09:39:54.298Z,8.57
2023-12-12T09:42:26.532Z,8.62
2023-12-12T09:44:59.956Z,8.63
2023-12-12T09:47:30.252Z,8.67
2023-12-12T09:50:08.321Z,8.62
2023-12-12T09:52:37.991Z,8.67
2023-12-12T09:55:07.412Z,8.71
2023-12-12T09:57:36.084Z,8.73
2023-12-12T10:00:05.630Z,8.73
2023-12-12T10:02:37.717Z,8.75
2023-12-12T10:05:06.774Z,8.77
2023-12-12T10:07:36.673Z,8.82
2023-12-12T10:10:08.470Z,8.83
2023-12-12T10:12:37.789Z,8.83
2023-12-12T10:15:26.161Z,8.79
2023-12-12T10:18:00.569Z,8.83
2023-12-12T10:20:31.998Z,8.85
2023-12-12T10:23:01.920Z,8.86
2023-12-12T10:25:38.432Z,8.88
2023-12-12T10:28:08.602Z,8.84
2023-12-12T10:30:38.331Z,8.81
2023-12-12T10:33:12.450Z,8.81
2023-12-12T10:35:50.243Z,8.85
2023-12-12T10:38:38.641Z,8.89
2023-12-12T10:41:21.551Z,8.87
2023-12-12T10:43:51.976Z,8.90
2023-12-12T10:46:21.903Z,8.90
2023-12-12T10:48:54.643Z,8.91
2023-12-12T10:51:23.324Z,8.89
2023-12-12T10:53:55.891Z,8.88
2023-12-12T10:56:24.573Z,8.88
2023-12-12T10:58:53.699Z,8.92
2023-12-12T11:01:23.024Z,8.94
2023-12-12T11:03:55.074Z,8.95
2023-12-12T11:06:24.882Z,8.88
2023-12-12T11:08:54.047Z,8.91
2023-12-12T11:11:25.208Z,8.85
2023-12-12T11:13:54.327Z,8.96
2023-12-12T11:16:23.256Z,9.00
2023-12-12T11:18:56.404Z,9.00
2023-12-12T11:21:55.127Z,9.04
2023-12-12T11:24:23.211Z,9.08
2023-12-12T11:26:55.153Z,8.97
2023-12-12T11:29:26.629Z,8.97
2023-12-12T11:32:03.045Z,8.94
2023-12-12T11:34:39.455Z,8.95
2023-12-12T11:37:09.912Z,9.04
2023-12-12T11:39:50.774Z,9.13
2023-12-12T11:42:20.382Z,9.22
2023-12-12T11:44:50.529Z,9.28
2023-12-12T11:47:21.806Z,9.32
2023-12-12T11:49:52.117Z,9.33
2023-12-12T11:52:51.260Z,9.29
2023-12-12T11:55:24.634Z,9.34
2023-12-12T11:58:00.674Z,9.48
2023-12-12T12:00:33.763Z,9.55
2023-12-12T12:03:02.737Z,9.57
2023-12-12T12:05:33.438Z,9.62
2023-12-12T12:08:03.144Z,9.68
2023-12-12T12:10:31.483Z,9.69
2023-12-12T12:13:00.471Z,9.69
2023-12-12T12:15:29.211Z,9.68
2023-12-12T12:17:58.961Z,9.74
2023-12-12T12:20:27.696Z,9.74
2023-12-12T12:22:57.545Z,9.74
2023-12-12T12:25:28.592Z,9.84
2023-12-12T12:27:57.904Z,9.79
2023-12-12T12:30:27.220Z,9.84
2023-12-12T12:33:03.732Z,9.86
2023-12-12T12:35:32.878Z,9.83
2023-12-12T12:38:03.760Z,9.90
2023-12-12T12:40:37.657Z,9.92
2023-12-12T12:43:16.761Z,9.88
2023-12-12T12:45:46.352Z,9.89
2023-12-12T12:48:18.061Z,9.93
2023-12-12T12:50:49.618Z,9.76
2023-12-12T12:53:20.404Z,9.68
2023-12-12T12:55:56.323Z,9.69
2023-12-12T12:58:26.543Z,9.71
2023-12-12T13:00:56.773Z,9.80
2023-12-12T13:03:25.194Z,9.82
2023-12-12T13:05:54.534Z,9.82
2023-12-12T13:08:24.306Z,9.83
2023-12-12T13:10:53.694Z,9.64
2023-12-12T13:13:22.618Z,9.42
2023-12-12T13:15:51.735Z,9.30
2023-12-12T13:18:20.115Z,9.36
2023-12-12T13:20:51.723Z,9.43
2023-12-12T13:23:19.766Z,9.53
2023-12-12T13:25:49.427Z,9.63
2023-12-12T13:28:17.522Z,9.65
2023-12-12T13:30:48.136Z,9.60
2023-12-12T13:33:16.425Z,9.67
2023-12-12T13:38:13.104Z,9.76
2023-12-12T13:40:42.451Z,9.78
2023-12-12T13:43:12.080Z,9.84
2023-12-12T13:45:40.711Z,9.82
2023-12-12T13:48:09.801Z,9.85
2023-12-12T13:50:40.160Z,9.85
2023-12-12T13:53:08.152Z,9.85
2023-12-12T13:55:36.524Z,9.93
2023-12-12T13:58:04.788Z,9.91
2023-12-12T14:00:34.091Z,9.94
2023-12-12T14:03:02.011Z,9.95
2023-12-12T14:05:30.241Z,9.99
2023-12-12T14:07:59.333Z,9.98
2023-12-12T14:10:27.395Z,9.98
2023-12-12T14:12:55.597Z,10.00
2023-12-12T14:15:23.634Z,9.93
2023-12-12T14:17:55.476Z,9.98
2023-12-12T14:20:23.449Z,9.97
2023-12-12T14:25:22.507Z,9.99
2023-12-12T14:27:52.787Z,9.96
2023-12-12T14:30:27.109Z,9.91
2023-12-12T14:32:59.639Z,9.90
2023-12-12T14:35:30.941Z,9.92
2023-12-12T14:37:58.963Z,9.93
2023-12-12T14:40:28.016Z,9.92
2023-12-12T14:42:56.096Z,9.90
2023-12-12T14:45:24.420Z,9.89
2023-12-12T14:47:53.444Z,9.92
2023-12-12T14:50:22.919Z,9.93
2023-12-12T14:52:50.912Z,9.92
2023-12-12T14:55:18.937Z,9.94
2023-12-12T14:57:47.680Z,9.94
2023-12-12T15:00:23.534Z,9.91
2023-12-12T15:02:55.017Z,9.87
2023-12-12T15:05:24.816Z,9.75
2023-12-12T15:07:53.023Z,9.74
2023-12-12T15:10:21.182Z,9.78
2023-12-12T15:12:49.292Z,9.78
2023-12-12T15:15:18.094Z,9.84
2023-12-12T15:18:10.017Z,9.79
2023-12-12T15:20:47.338Z,9.79
2023-12-12T15:23:15.408Z,9.84
2023-12-12T15:25:45.530Z,9.85
2023-12-12T15:28:24.909Z,9.83
2023-12-12T15:31:05.501Z,9.78
2023-12-12T15:33:37.083Z,9.81
2023-12-12T15:36:08.776Z,9.79
2023-12-12T15:38:37.356Z,9.79
2023-12-12T15:41:06.425Z,9.80
2023-12-12T15:43:35.496Z,9.82
2023-12-12T15:46:03.842Z,9.85
2023-12-12T15:48:32.117Z,9.83
2023-12-12T15:51:00.304Z,9.84
2023-12-12T15:53:29.886Z,9.84
2023-12-12T15:55:59.261Z,9.86
2023-12-12T15:58:27.376Z,9.82
2023-12-12T16:00:55.509Z,9.78
2023-12-12T16:03:23.736Z,9.81
2023-12-12T16:05:51.770Z,9.83
2023-12-12T16:08:19.704Z,9.79
2023-12-12T16:10:49.345Z,9.82
2023-12-12T16:13:17.371Z,9.84
2023-12-12T16:15:46.095Z,9.72
2023-12-12T16:18:17.187Z,9.69
2023-12-12T16:20:45.344Z,9.69
2023-12-12T16:23:13.402Z,9.65
2023-12-12T16:25:41.558Z,9.61
2023-12-12T16:28:11.042Z,9.63
2023-12-12T16:30:40.887Z,9.58
2023-12-12T16:33:58.879Z,9.49
2023-12-12T16:36:43.337Z,9.45
2023-12-12T16:39:12.454Z,9.51
2023-12-12T16:41:51.679Z,9.53
2023-12-12T16:44:23.231Z,9.54
2023-12-12T16:46:52.485Z,9.56
2023-12-12T16:49:21.302Z,9.57
2023-12-12T16:51:49.836Z,9.59
2023-12-12T16:54:18.119Z,9.59
2023-12-12T16:57:02.684Z,9.59
2023-12-12T16:59:42.028Z,9.57
2023-12-12T17:02:14.722Z,9.56
2023-12-12T17:04:45.479Z,9.59
2023-12-12T17:07:13.723Z,9.56
2023-12-12T17:09:41.835Z,9.51
2023-12-12T17:12:09.997Z,9.52
2023-12-12T17:14:39.464Z,9.51
2023-12-12T17:17:07.518Z,9.34
2023-12-12T17:19:36.250Z,9.32
2023-12-12T17:22:06.376Z,9.40
2023-12-12T17:24:34.782Z,9.40
2023-12-12T17:27:02.931Z,9.41
2023-12-12T17:29:33.720Z,9.44
2023-12-12T17:32:03.666Z,9.46
2023-12-12T17:34:32.115Z,9.48
2023-12-12T17:37:00.345Z,9.50
2023-12-12T17:39:28.415Z,9.53
2023-12-12T17:41:56.586Z,9.53
2023-12-12T17:44:24.710Z,9.49
2023-12-12T17:46:52.905Z,9.30
2023-12-12T17:49:24.642Z,9.26
2023-12-12T17:51:55.621Z,9.30
2023-12-12T17:54:23.982Z,9.26
2023-12-12T17:56:52.093Z,9.19
2023-12-12T17:59:20.274Z,9.02
2023-12-12T18:01:48.482Z,9.10
2023-12-12T18:04:15.609Z,9.10
2023-12-12T18:06:45.760Z,9.23
2023-12-12T18:09:14.299Z,9.30
2023-12-12T18:11:43.436Z,9.34
2023-12-12T18:14:11.626Z,9.37
2023-12-12T18:16:39.940Z,9.41
2023-12-12T18:19:08.391Z,9.43
2023-12-12T18:21:37.252Z,9.47
2023-12-12T18:24:16.157Z,9.45
2023-12-12T18:26:53.135Z,9.49
2023-12-12T18:29:23.471Z,9.46
2023-12-12T18:31:51.663Z,9.35
2023-12-12T18:34:19.905Z,9.38
2023-12-12T18:36:48.398Z,9.44
2023-12-12T18:39:18.015Z,9.46
2023-12-12T18:41:52.490Z,9.47
2023-12-12T18:44:22.035Z,9.48
2023-12-12T18:46:50.655Z,9.42
2023-12-12T18:49:19.644Z,9.45
2023-12-12T18:51:49.841Z,9.42
2023-12-12T18:54:23.813Z,9.45
2023-12-12T18:56:53.516Z,9.50
2023-12-12T18:59:22.601Z,9.52
2023-12-12T19:01:54.193Z,9.50
2023-12-12T19:04:24.236Z,9.49
2023-12-12T19:07:00.537Z,9.52
2023-12-12T19:09:31.049Z,9.53
2023-12-12T19:12:00.165Z,9.49
2023-12-12T19:14:28.237Z,9.52
2023-12-12T19:16:57.166Z,9.57
2023-12-12T19:19:25.486Z,9.57
2023-12-12T19:21:54.961Z,9.61
2023-12-12T19:24:27.635Z,9.63
2023-12-12T19:26:58.576Z,9.66
2023-12-12T19:29:30.096Z,9.68
2023-12-12T19:31:59.758Z,9.72
2023-12-12T19:34:29.269Z,9.75
2023-12-12T19:36:58.161Z,9.75
2023-12-12T19:39:28.981Z,9.78
2023-12-12T19:41:58.512Z,9.78
2023-12-12T19:44:30.874Z,9.77
2023-12-12T19:47:02.058Z,9.79
2023-12-12T19:49:31.438Z,9.78
2023-12-12T19:52:04.031Z,9.76
2023-12-12T19:54:33.433Z,9.73
2023-12-12T19:57:03.636Z,9.76
2023-12-12T19:59:31.931Z,9.73
2023-12-12T20:02:00.606Z,9.73
2023-12-12T20:04:31.141Z,9.72
2023-12-12T20:07:00.060Z,9.72
2023-12-12T20:09:29.269Z,9.73
2023-12-12T20:11:57.953Z,9.74
2023-12-12T20:14:32.252Z,9.76
2023-12-12T20:17:00.232Z,9.76
2023-12-12T20:19:28.826Z,9.76
2023-12-12T20:21:56.960Z,9.73
2023-12-12T20:24:25.541Z,9.75
2023-12-12T20:26:53.780Z,9.75
2023-12-12T20:29:21.871Z,9.79
2023-12-12T20:31:51.980Z,9.79
2023-12-12T20:34:24.589Z,9.71
2023-12-12T20:36:56.408Z,9.74
2023-12-12T20:39:25.741Z,9.79
2023-12-12T20:41:54.701Z,9.75
2023-12-12T20:44:23.217Z,9.76
2023-12-12T20:46:53.044Z,9.73
2023-12-12T20:49:23.995Z,9.74
2023-12-12T20:51:55.085Z,9.76
2023-12-12T20:54:25.853Z,9.74
2023-12-12T20:56:56.373Z,9.73
2023-12-12T20:59:26.113Z,9.68
2023-12-12T21:01:55.567Z,9.66
2023-12-12T21:04:23.630Z,9.68
2023-12-12T21:06:54.300Z,9.74
2023-12-12T21:09:22.928Z,9.73
2023-12-12T21:11:50.877Z,9.71
2023-12-12T21:14:18.998Z,9.75
2023-12-12T21:16:46.957Z,9.73
2023-12-12T21:19:16.586Z,9.76
2023-12-12T21:21:44.792Z,9.75
2023-12-12T21:24:12.877Z,9.75
2023-12-12T21:26:41.807Z,9.74
2023-12-12T21:29:09.757Z,9.77
2023-12-12T21:31:40.007Z,9.70
2023-12-12T21:34:08.492Z,9.73
2023-12-12T21:36:39.143Z,9.72
2023-12-12T21:39:09.358Z,9.73
2023-12-12T21:41:40.212Z,9.73
2023-12-12T21:44:08.256Z,9.73
2023-12-12T21:46:36.427Z,9.72
2023-12-12T21:49:04.495Z,9.67
2023-12-12T21:51:32.608Z,9.60
2023-12-12T21:54:01.949Z,9.57
2023-12-12T21:56:29.914Z,9.52
2023-12-12T21:58:58.659Z,9.57
2023-12-12T22:01:27.232Z,9.55
2023-12-12T22:04:00.014Z,9.50
2023-12-12T22:06:28.052Z,9.49
2023-12-12T22:08:57.668Z,9.48
2023-12-12T22:11:27.620Z,9.49
2023-12-12T22:13:58.053Z,9.48
2023-12-12T22:16:29.311Z,9.36
2023-12-12T22:18:59.696Z,9.25
2023-12-12T22:21:29.718Z,9.23
2023-12-12T22:23:57.674Z,9.06
2023-12-12T22:26:29.217Z,9.16
2023-12-12T22:28:57.491Z,8.97
2023-12-12T22:31:25.477Z,8.91
2023-12-12T22:33:54.106Z,8.94
2023-12-12T22:36:24.388Z,8.79
2023-12-12T22:38:53.666Z,8.84
2023-12-12T22:41:22.408Z,8.82
2023-12-12T22:43:51.966Z,8.84
2023-12-12T22:46:20.784Z,8.72
2023-12-12T22:48:49.250Z,8.78
2023-12-12T22:51:17.838Z,8.78
2023-12-12T22:53:47.714Z,8.78
2023-12-12T22:56:16.769Z,8.79
2023-12-12T22:58:45.747Z,8.78
2023-12-12T23:01:15.534Z,8.71
2023-12-12T23:03:43.620Z,8.74
2023-12-12T23:06:11.847Z,8.76
2023-12-12T23:08:40.168Z,8.77
2023-12-12T23:11:08.672Z,8.75
2023-12-12T23:13:37.340Z,8.77
2023-12-12T23:16:05.883Z,8.75
2023-12-12T23:18:36.381Z,8.74
2023-12-12T23:21:04.961Z,8.69
2023-12-12T23:23:35.036Z,8.63
2023-12-12T23:26:03.607Z,8.63
2023-12-12T23:28:31.872Z,8.66
2023-12-12T23:31:07.498Z,8.57
2023-12-12T23:33:39.899Z,8.63
2023-12-12T23:36:09.751Z,8.60
2023-12-12T23:38:38.666Z,8.60
2023-12-12T23:41:08.151Z,8.64
2023-12-12T23:43:37.730Z,8.67
2023-12-12T23:46:06.647Z,8.66
2023-12-12T23:48:35.223Z,8.57
2023-12-12T23:51:04.927Z,8.60
2023-12-12T23:53:34.724Z,8.60
2023-12-12T23:56:03.376Z,8.57
2023-12-12T23:58:32.100Z,8.42
